createdAt,value
2023-03-27T00:01:46.554Z,38.09
2023-03-27T00:04:50.943Z,37.30
2023-03-27T00:07:58.816Z,37.43
2023-03-27T00:11:03.209Z,38.89
2023-03-27T00:14:07.693Z,37.55
2023-03-27T00:17:11.953Z,36.59
2023-03-27T00:20:18.107Z,35.43
2023-03-27T00:23:23.555Z,35.15
2023-03-27T00:26:27.287Z,34.93
2023-03-27T00:29:31.796Z,36.02
2023-03-27T00:32:36.427Z,34.86
2023-03-27T00:35:40.588Z,34.64
2023-03-27T00:38:46.533Z,34.02
2023-03-27T00:41:51.209Z,35.23
2023-03-27T00:44:55.917Z,34.69
2023-03-27T00:48:05.225Z,33.34
2023-03-27T00:51:11.027Z,34.49
2023-03-27T00:54:22.617Z,33.27
2023-03-27T00:57:28.445Z,32.88
2023-03-27T01:00:33.851Z,30.50
2023-03-27T01:03:38.180Z,31.61
2023-03-27T01:06:44.374Z,32.24
2023-03-27T01:09:49.004Z,31.30
2023-03-27T01:13:16.728Z,29.48
2023-03-27T01:16:29.795Z,29.58
2023-03-27T01:19:58.449Z,28.92
2023-03-27T01:23:09.957Z,29.55
2023-03-27T01:26:46.133Z,29.44
2023-03-27T01:30:02.295Z,29.02
2023-03-27T01:33:28.542Z,27.60
2023-03-27T01:36:48.888Z,27.97
2023-03-27T01:39:59.378Z,28.98
2023-03-27T01:43:11.972Z,29.11
2023-03-27T01:46:21.171Z,28.83
2023-03-27T01:49:49.755Z,26.83
2023-03-27T01:53:07.030Z,28.98
2023-03-27T01:56:27.020Z,28.08
2023-03-27T01:59:49.360Z,26.66
2023-03-27T02:03:15.320Z,28.36
2023-03-27T02:06:31.482Z,27.13
2023-03-27T02:09:45.203Z,28.46
2023-03-27T02:13:34.120Z,27.42
2023-03-27T02:16:46.885Z,28.21
2023-03-27T02:20:04.363Z,29.98
2023-03-27T02:23:18.538Z,30.14
2023-03-27T02:26:25.539Z,29.16
2023-03-27T02:29:42.572Z,29.95
2023-03-27T02:32:58.137Z,30.13
2023-03-27T02:36:29.535Z,30.27
2023-03-27T02:39:51.241Z,30.43
2023-03-27T02:43:17.680Z,29.67
2023-03-27T02:46:31.311Z,28.91
2023-03-27T02:49:47.531Z,27.92
2023-03-27T02:52:57.888Z,29.39
2023-03-27T02:56:05.192Z,29.60
2023-03-27T02:59:37.911Z,26.13
2023-03-27T03:02:43.003Z,29.03
2023-03-27T03:05:47.718Z,29.18
2023-03-27T03:08:55.610Z,29.02
2023-03-27T03:12:00.802Z,29.55
2023-03-27T03:15:08.130Z,30.54
2023-03-27T03:18:14.011Z,29.29
2023-03-27T03:21:18.612Z,29.93
2023-03-27T03:24:23.264Z,30.10
2023-03-27T03:27:29.912Z,30.17
2023-03-27T03:30:46.528Z,29.60
2023-03-27T03:33:50.519Z,29.16
2023-03-27T03:36:56.198Z,29.77
2023-03-27T03:40:12.632Z,28.48
2023-03-27T03:43:26.755Z,27.68
2023-03-27T03:46:31.909Z,28.62
2023-03-27T03:49:36.870Z,28.73
2023-03-27T03:52:41.784Z,28.14
2023-03-27T03:55:47.332Z,28.97
2023-03-27T03:58:51.678Z,28.60
2023-03-27T04:01:58.401Z,28.55
2023-03-27T04:05:08.560Z,28.36
2023-03-27T04:08:15.220Z,28.33
2023-03-27T04:11:54.690Z,29.32
2023-03-27T04:15:28.338Z,28.67
2023-03-27T04:18:42.566Z,27.63
2023-03-27T04:21:57.242Z,27.30
2023-03-27T04:25:07.770Z,28.37
2023-03-27T04:28:17.213Z,27.96
2023-03-27T04:31:27.011Z,28.41
2023-03-27T04:34:51.132Z,27.10
2023-03-27T04:38:18.130Z,26.83
2023-03-27T04:41:23.627Z,25.68
2023-03-27T04:44:30.163Z,27.13
2023-03-27T04:47:38.798Z,27.15
2023-03-27T04:50:50.311Z,25.19
2023-03-27T04:54:08.898Z,25.72
2023-03-27T04:57:19.879Z,26.34
2023-03-27T05:00:26.441Z,26.33
2023-03-27T05:03:54.364Z,26.08
2023-03-27T05:07:11.079Z,26.60
2023-03-27T05:10:16.548Z,25.53
2023-03-27T05:13:20.810Z,26.60
2023-03-27T05:16:25.053Z,26.08
2023-03-27T05:19:34.337Z,25.66
2023-03-27T05:22:40.111Z,26.48
2023-03-27T05:26:00.130Z,26.45
2023-03-27T05:29:22.022Z,25.98
2023-03-27T05:32:36.465Z,26.09
2023-03-27T05:35:58.939Z,26.60
2023-03-27T05:39:05.466Z,25.46
2023-03-27T05:42:15.253Z,26.26
2023-03-27T05:45:20.964Z,26.34
2023-03-27T05:48:25.333Z,27.01
2023-03-27T05:51:35.119Z,26.83
2023-03-27T05:54:39.473Z,26.18
2023-03-27T05:57:48.060Z,25.70
2023-03-27T06:00:52.652Z,24.99
2023-03-27T06:03:58.702Z,26.67
2023-03-27T06:07:21.228Z,26.81
2023-03-27T06:10:26.663Z,26.32
2023-03-27T06:13:49.603Z,26.34
2023-03-27T06:16:58.265Z,25.96
2023-03-27T06:20:20.759Z,26.10
2023-03-27T06:23:28.896Z,26.14
2023-03-27T06:26:33.573Z,26.47
2023-03-27T06:29:42.744Z,26.57
2023-03-27T06:32:51.934Z,26.40
2023-03-27T06:36:01.182Z,26.00
2023-03-27T06:39:07.746Z,24.99
2023-03-27T06:42:12.455Z,25.28
2023-03-27T06:45:34.969Z,26.05
2023-03-27T06:48:54.570Z,26.32
2023-03-27T06:51:58.988Z,26.04
2023-03-27T06:55:04.982Z,26.40
2023-03-27T06:58:09.399Z,26.24
2023-03-27T07:01:14.348Z,26.45
2023-03-27T07:04:36.459Z,26.58
2023-03-27T07:07:58.295Z,26.94
2023-03-27T07:11:11.268Z,27.20
2023-03-27T07:14:30.896Z,26.85
2023-03-27T07:17:47.989Z,26.96
2023-03-27T07:20:56.485Z,26.94
2023-03-27T07:24:01.712Z,26.70
2023-03-27T07:27:10.367Z,26.87
2023-03-27T07:30:16.204Z,27.44
2023-03-27T07:33:21.731Z,27.55
2023-03-27T07:36:26.974Z,27.56
2023-03-27T07:39:42.252Z,28.40
2023-03-27T07:42:46.702Z,28.07
2023-03-27T07:45:58.654Z,27.55
2023-03-27T07:49:04.117Z,27.34
2023-03-27T07:52:10.139Z,27.53
2023-03-27T07:55:23.908Z,28.02
2023-03-27T07:58:38.418Z,28.21
2023-03-27T08:01:43.116Z,28.67
2023-03-27T08:04:48.037Z,28.56
2023-03-27T08:07:53.814Z,28.56
2023-03-27T08:11:29.640Z,28.54
2023-03-27T08:14:35.833Z,28.50
2023-03-27T08:17:55.243Z,28.32
2023-03-27T08:21:26.451Z,28.76
2023-03-27T08:24:31.984Z,28.65
2023-03-27T08:27:49.232Z,28.94
2023-03-27T08:30:54.261Z,29.28
2023-03-27T08:34:10.414Z,29.68
2023-03-27T08:37:22.127Z,29.38
2023-03-27T08:40:52.993Z,29.45
2023-03-27T08:44:07.160Z,29.49
2023-03-27T08:47:30.607Z,29.77
2023-03-27T08:50:57.261Z,29.56
2023-03-27T08:54:13.691Z,30.10
2023-03-27T08:57:23.941Z,29.89
2023-03-27T09:00:40.565Z,30.13
2023-03-27T09:04:06.650Z,30.50
2023-03-27T09:07:17.953Z,30.87
2023-03-27T09:10:57.007Z,30.96
2023-03-27T09:14:23.383Z,30.87
2023-03-27T09:17:40.557Z,30.73
2023-03-27T09:21:04.961Z,31.24
2023-03-27T09:24:17.590Z,31.55
2023-03-27T09:27:50.982Z,31.03
2023-03-27T09:31:41.228Z,31.19
2023-03-27T09:34:48.924Z,31.58
2023-03-27T09:38:32.722Z,32.77
2023-03-27T09:41:46.994Z,32.55
2023-03-27T09:44:59.707Z,33.05
2023-03-27T09:48:15.497Z,33.91
2023-03-27T09:51:41.254Z,35.58
2023-03-27T09:55:31.829Z,35.60
2023-03-27T09:58:47.828Z,35.61
2023-03-27T10:02:01.259Z,36.08
2023-03-27T10:05:23.027Z,36.18
2023-03-27T10:08:38.879Z,36.70
2023-03-27T10:12:19.433Z,38.04
2023-03-27T10:15:30.863Z,37.36
2023-03-27T10:18:43.164Z,37.88
2023-03-27T10:21:54.975Z,38.14
2023-03-27T10:25:30.445Z,38.93
2023-03-27T10:29:19.894Z,38.00
2023-03-27T10:32:45.752Z,39.75
2023-03-27T10:36:11.395Z,39.00
2023-03-27T10:39:17.656Z,38.43
2023-03-27T10:42:45.146Z,38.76
2023-03-27T10:45:54.445Z,39.30
2023-03-27T10:49:25.554Z,40.77
2023-03-27T10:53:15.939Z,40.12
2023-03-27T10:56:48.586Z,40.56
2023-03-27T11:00:25.553Z,41.50
2023-03-27T11:04:06.248Z,43.17
2023-03-27T11:07:42.768Z,42.28
2023-03-27T11:10:55.106Z,42.99
2023-03-27T11:14:20.046Z,44.82
2023-03-27T11:17:53.585Z,46.59
2023-03-27T11:21:56.846Z,47.35
2023-03-27T11:25:09.187Z,45.05
2023-03-27T11:28:32.675Z,47.44
2023-03-27T11:31:50.248Z,47.99
2023-03-27T11:35:18.739Z,47.45
2023-03-27T11:38:52.482Z,47.17
2023-03-27T11:42:00.459Z,47.71
2023-03-27T11:45:10.728Z,47.53
2023-03-27T11:48:43.630Z,49.68
2023-03-27T11:52:24.704Z,49.87
2023-03-27T11:55:52.144Z,48.39
2023-03-27T11:59:30.667Z,48.27
2023-03-27T12:03:00.415Z,49.40
2023-03-27T12:06:32.059Z,51.59
2023-03-27T12:09:57.938Z,49.97
2023-03-27T12:14:01.545Z,52.67
2023-03-27T12:17:32.890Z,51.57
2023-03-27T12:21:16.662Z,52.03
2023-03-27T12:25:04.635Z,52.76
2023-03-27T12:29:23.358Z,53.11
2023-03-27T12:33:02.554Z,53.99
2023-03-27T12:36:15.064Z,51.48
2023-03-27T12:39:27.994Z,52.61
2023-03-27T12:43:05.278Z,54.28
2023-03-27T12:46:40.891Z,53.67
2023-03-27T12:49:57.512Z,53.72
2023-03-27T12:53:20.083Z,52.72
2023-03-27T12:56:35.528Z,54.88
2023-03-27T12:59:51.639Z,53.02
2023-03-27T13:03:18.309Z,53.90
2023-03-27T13:07:01.134Z,54.10
2023-03-27T13:10:34.153Z,53.05
2023-03-27T13:14:06.619Z,55.65
2023-03-27T13:17:51.784Z,56.77
2023-03-27T13:21:19.895Z,56.31
2023-03-27T13:24:34.486Z,55.25
2023-03-27T13:27:38.851Z,55.21
2023-03-27T13:30:45.587Z,56.09
2023-03-27T13:34:29.642Z,56.13
2023-03-27T13:37:48.936Z,55.97
2023-03-27T13:40:56.444Z,55.95
2023-03-27T13:44:08.985Z,55.92
2023-03-27T13:47:33.928Z,57.08
2023-03-27T13:51:01.840Z,57.63
2023-03-27T13:54:33.511Z,56.36
2023-03-27T13:58:01.083Z,55.61
2023-03-27T14:01:35.095Z,58.07
2023-03-27T14:05:09.901Z,57.93
2023-03-27T14:08:34.427Z,56.22
2023-03-27T14:12:28.768Z,56.64
2023-03-27T14:16:04.457Z,54.80
2023-03-27T14:20:00.412Z,56.46
2023-03-27T14:23:29.212Z,59.03
2023-03-27T14:26:47.005Z,59.00
2023-03-27T14:30:21.492Z,59.90
2023-03-27T14:34:15.450Z,59.50
2023-03-27T14:37:29.738Z,58.30
2023-03-27T14:40:48.261Z,58.84
2023-03-27T14:43:57.823Z,56.89
2023-03-27T14:47:12.760Z,58.36
2023-03-27T14:50:20.009Z,58.25
2023-03-27T14:53:29.402Z,58.34
2023-03-27T14:56:48.523Z,59.11
2023-03-27T15:00:08.770Z,58.53
2023-03-27T15:03:25.116Z,60.57
2023-03-27T15:06:30.208Z,59.86
2023-03-27T15:09:38.136Z,59.25
2023-03-27T15:13:02.464Z,59.43
2023-03-27T15:16:08.374Z,60.60
2023-03-27T15:19:20.806Z,60.02
2023-03-27T15:22:37.936Z,60.38
2023-03-27T15:25:47.984Z,58.78
2023-03-27T15:29:10.235Z,59.39
2023-03-27T15:32:19.811Z,58.58
2023-03-27T15:35:36.165Z,58.73
2023-03-27T15:38:40.823Z,57.93
2023-03-27T15:41:45.570Z,57.84
2023-03-27T15:44:49.689Z,58.48
2023-03-27T15:48:07.615Z,60.16
2023-03-27T15:51:28.841Z,59.52
2023-03-27T15:54:36.350Z,59.91
2023-03-27T15:57:41.916Z,59.79
2023-03-27T16:00:51.868Z,60.72
2023-03-27T16:04:03.340Z,60.91
2023-03-27T16:07:22.182Z,61.83
2023-03-27T16:10:32.344Z,61.83
2023-03-27T16:14:00.339Z,61.38
2023-03-27T16:17:28.809Z,61.78
2023-03-27T16:20:38.139Z,62.03
2023-03-27T16:23:44.679Z,61.97
2023-03-27T16:26:49.577Z,62.41
2023-03-27T16:29:55.273Z,62.68
2023-03-27T16:33:00.787Z,62.89
2023-03-27T16:36:05.560Z,62.45
2023-03-27T16:39:13.033Z,63.41
2023-03-27T16:42:25.799Z,64.26
2023-03-27T16:45:34.169Z,64.94
2023-03-27T16:48:38.614Z,63.41
2023-03-27T16:51:45.384Z,62.21
2023-03-27T16:54:50.017Z,61.39
2023-03-27T16:57:55.916Z,61.39
2023-03-27T17:01:00.768Z,62.46
2023-03-27T17:04:05.531Z,62.98
2023-03-27T17:07:14.426Z,63.31
2023-03-27T17:10:18.824Z,65.34
2023-03-27T17:13:23.199Z,64.55
2023-03-27T17:16:27.681Z,66.00
2023-03-27T17:19:34.315Z,65.02
2023-03-27T17:22:38.695Z,63.88
2023-03-27T17:25:45.303Z,64.19
2023-03-27T17:28:49.564Z,64.86
2023-03-27T17:31:54.136Z,63.52
2023-03-27T17:34:58.584Z,63.26
2023-03-27T17:38:03.626Z,63.29
2023-03-27T17:41:08.152Z,63.63
2023-03-27T17:44:14.162Z,62.86
2023-03-27T17:47:18.845Z,60.69
2023-03-27T17:50:23.241Z,59.78
2023-03-27T17:53:28.395Z,58.02
2023-03-27T17:56:32.735Z,57.45
2023-03-27T17:59:39.286Z,57.13
2023-03-27T18:02:44.815Z,56.72
2023-03-27T18:05:49.445Z,55.73
2023-03-27T18:08:53.524Z,55.57
2023-03-27T18:11:57.807Z,55.82
2023-03-27T18:15:02.140Z,55.20
2023-03-27T18:18:07.536Z,55.36
2023-03-27T18:21:12.173Z,54.93
2023-03-27T18:24:17.446Z,54.68
2023-03-27T18:27:21.274Z,55.50
2023-03-27T18:30:25.488Z,55.02
2023-03-27T18:33:30.751Z,54.93
2023-03-27T18:36:35.069Z,54.97
2023-03-27T18:39:39.384Z,54.23
2023-03-27T18:42:47.519Z,54.00
2023-03-27T18:46:03.160Z,54.92
2023-03-27T18:49:21.611Z,55.65
2023-03-27T18:52:28.974Z,57.43
2023-03-27T18:55:34.190Z,57.65
2023-03-27T18:58:38.538Z,57.99
2023-03-27T19:01:42.842Z,58.01
2023-03-27T19:04:48.748Z,59.23
2023-03-27T19:07:58.433Z,59.07
2023-03-27T19:11:02.707Z,60.27
2023-03-27T19:14:25.570Z,61.76
2023-03-27T19:17:49.938Z,61.54
2023-03-27T19:21:14.649Z,63.66
2023-03-27T19:24:26.331Z,62.20
2023-03-27T19:27:38.822Z,61.70
2023-03-27T19:30:44.432Z,63.69
2023-03-27T19:33:49.084Z,62.71
2023-03-27T19:36:53.062Z,62.12
2023-03-27T19:39:57.335Z,62.66
2023-03-27T19:43:03.228Z,61.98
2023-03-27T19:46:15.748Z,60.87
2023-03-27T19:49:21.410Z,61.53
2023-03-27T19:52:29.495Z,61.48
2023-03-27T19:55:33.841Z,63.49
2023-03-27T19:58:38.351Z,62.89
2023-03-27T20:01:44.986Z,64.46
2023-03-27T20:04:49.341Z,64.46
2023-03-27T20:07:53.997Z,64.03
2023-03-27T20:10:58.832Z,64.94
2023-03-27T20:14:03.893Z,65.12
2023-03-27T20:17:21.388Z,64.15
2023-03-27T20:20:32.438Z,63.39
2023-03-27T20:23:39.451Z,64.60
2023-03-27T20:26:48.760Z,65.95
2023-03-27T20:29:57.533Z,64.21
2023-03-27T20:33:17.199Z,64.00
2023-03-27T20:40:22.260Z,64.63
2023-03-27T20:43:27.969Z,64.14
2023-03-27T20:46:36.760Z,65.49
2023-03-27T20:49:44.668Z,65.06
2023-03-27T20:52:49.004Z,64.79
2023-03-27T20:56:03.426Z,66.93
2023-03-27T20:59:08.422Z,66.38
2023-03-27T21:02:22.430Z,66.43
2023-03-27T21:05:27.294Z,66.08
2023-03-27T21:08:32.321Z,65.84
2023-03-27T21:11:37.170Z,65.33
2023-03-27T21:14:41.554Z,63.99
2023-03-27T21:17:48.954Z,64.08
2023-03-27T21:20:56.990Z,63.66
2023-03-27T21:24:01.608Z,64.08
2023-03-27T21:27:09.053Z,61.02
2023-03-27T21:30:16.159Z,60.54
2023-03-27T21:33:20.943Z,58.98
2023-03-27T21:36:27.983Z,57.96
2023-03-27T21:39:33.626Z,56.03
2023-03-27T21:42:37.915Z,54.61
2023-03-27T21:45:42.406Z,53.98
2023-03-27T21:48:50.972Z,52.75
2023-03-27T21:51:55.360Z,52.57
2023-03-27T21:55:03.333Z,52.92
2023-03-27T21:58:08.521Z,52.96
2023-03-27T22:01:12.989Z,51.35
2023-03-27T22:04:18.853Z,50.56
2023-03-27T22:07:24.187Z,49.39
2023-03-27T22:10:28.681Z,48.91
2023-03-27T22:13:32.999Z,48.17
2023-03-27T22:16:37.468Z,47.16
2023-03-27T22:19:41.524Z,45.95
2023-03-27T22:22:45.659Z,44.68
2023-03-27T22:25:56.363Z,42.86
2023-03-27T22:29:00.675Z,43.63
2023-03-27T22:32:05.709Z,42.38
2023-03-27T22:35:12.454Z,42.52
2023-03-27T22:38:17.495Z,42.40
2023-03-27T22:41:21.935Z,43.73
2023-03-27T22:44:27.070Z,42.34
2023-03-27T22:47:33.073Z,41.99
2023-03-27T22:50:37.416Z,41.87
2023-03-27T22:53:42.240Z,42.18
2023-03-27T22:56:47.606Z,41.99
2023-03-27T22:59:51.995Z,42.25
2023-03-27T23:02:56.799Z,41.65
2023-03-27T23:06:01.947Z,42.02
2023-03-27T23:09:06.510Z,41.34
2023-03-27T23:12:10.864Z,41.48
2023-03-27T23:15:14.734Z,40.36
2023-03-27T23:18:24.613Z,38.87
2023-03-27T23:21:28.983Z,39.44
2023-03-27T23:24:33.248Z,39.78
2023-03-27T23:27:37.776Z,40.12
2023-03-27T23:30:45.312Z,40.77
2023-03-27T23:33:51.948Z,39.03
2023-03-27T23:36:56.393Z,39.66
2023-03-27T23:40:00.640Z,40.70
2023-03-27T23:43:06.022Z,42.04
2023-03-27T23:46:11.280Z,41.29
2023-03-27T23:49:15.571Z,40.70
2023-03-27T23:52:19.747Z,40.76
2023-03-27T23:55:23.835Z,41.50
2023-03-27T23:58:29.478Z,41.44
